Time;durP1;ratioP1;P1;durP2;ratioP2;P2;SDS_P1;SDS_P2;PMS_P1;PMS_P2;Temp;Humidity;BMP_temperature;BMP_pressure;BME280_temperature;BME280_humidity;BME280_pressure;Samples;Min_cycle;Max_cycle;Signal;HPM_P1;HPM_P2
2023/08/24 00:01:08;;;;;;;0.00;0.00;;;12.60;1.00;;;;;;5105290;28;20496;-73
2023/08/24 00:03:34;;;;;;;0.38;0.20;;;12.60;1.00;;;;;;5103199;28;20040;-74
2023/08/24 00:06:00;;;;;;;0.08;0.05;;;12.50;1.00;;;;;;5105147;28;20063;-73
2023/08/24 00:08:26;;;;;;;0.22;0.10;;;12.50;1.90;;;;;;5104101;28;20042;-73
2023/08/24 00:10:52;;;;;;;0.00;0.00;;;12.50;1.00;;;;;;5104260;28;20078;-73
2023/08/24 00:13:18;;;;;;;0.22;0.10;;;12.40;1.00;;;;;;5112280;28;20040;-73
2023/08/24 00:15:45;;;;;;;0.08;0.00;;;12.50;1.00;;;;;;5102838;28;20036;-73
2023/08/24 00:18:10;;;;;;;0.05;0.05;;;12.50;20.30;;;;;;5105496;28;20039;-73
2023/08/24 00:20:37;;;;;;;0.10;0.10;;;12.50;66.50;;;;;;5104128;28;20035;-76
2023/08/24 00:23:03;;;;;;;0.10;0.10;;;12.40;45.60;;;;;;5103996;28;20051;-73
2023/08/24 00:25:30;;;;;;;0.13;0.10;;;12.30;1.00;;;;;;5107428;27;20043;-73
2023/08/24 00:27:56;;;;;;;0.00;0.00;;;12.30;99.90;;;;;;5107407;28;20379;-73
2023/08/24 00:30:21;;;;;;;0.00;0.00;;;12.30;99.90;;;;;;5105323;28;20038;-73
2023/08/24 00:32:47;;;;;;;0.00;0.00;;;12.20;99.90;;;;;;5104008;28;20079;-73
2023/08/24 00:35:13;;;;;;;0.00;0.00;;;12.20;99.90;;;;;;5103960;28;20376;-73
2023/08/24 00:37:38;;;;;;;0.00;0.00;;;12.10;99.90;;;;;;5107165;28;20063;-73
2023/08/24 00:40:09;;;;;;;0.47;0.10;;;12.10;99.90;;;;;;5107354;28;20402;-73
2023/08/24 00:42:39;;;;;;;0.00;0.00;;;12.10;99.90;;;;;;5105359;28;20040;-73
2023/08/24 00:45:06;;;;;;;0.00;0.00;;;12.10;99.90;;;;;;5103697;28;20101;-73
2023/08/24 00:47:32;;;;;;;0.43;0.20;;;12.10;99.90;;;;;;5104027;28;20047;-73
2023/08/24 00:49:59;;;;;;;0.10;0.10;;;12.20;99.90;;;;;;5106910;28;20397;-73
2023/08/24 00:52:28;;;;;;;0.00;0.00;;;12.20;99.90;;;;;;5106763;28;20040;-73
2023/08/24 00:54:55;;;;;;;0.00;0.00;;;12.30;99.90;;;;;;5098566;28;20135;-73
2023/08/24 00:57:21;;;;;;;0.20;0.20;;;12.30;99.90;;;;;;5101023;28;20044;-73
2023/08/24 00:59:48;;;;;;;0.00;0.00;;;12.30;1.00;;;;;;5104526;28;20054;-73
2023/08/24 01:02:13;;;;;;;0.00;0.00;;;12.30;1.00;;;;;;5106608;28;20131;-73
2023/08/24 01:04:41;;;;;;;0.40;0.35;;;12.30;1.00;;;;;;5106642;28;20378;-73
2023/08/24 01:07:08;;;;;;;0.35;0.35;;;12.40;90.40;;;;;;5095402;28;20046;-73
2023/08/24 01:09:34;;;;;;;0.15;0.15;;;12.50;99.90;;;;;;5100256;28;20071;-74
2023/08/24 01:12:25;;;;;;;0.63;0.10;;;12.70;99.90;;;;;;5102080;28;20043;-73
2023/08/24 01:15:03;;;;;;;0.00;0.00;;;12.70;99.90;;;;;;5100853;28;20036;-73
2023/08/24 01:17:30;;;;;;;0.00;0.00;;;12.70;99.90;;;;;;5099456;28;20051;-73
2023/08/24 01:19:58;;;;;;;0.00;0.00;;;12.70;99.90;;;;;;5106596;28;20161;-73
2023/08/24 01:22:27;;;;;;;0.00;0.00;;;12.80;99.90;;;;;;5094942;28;20040;-73
2023/08/24 01:25:16;;;;;;;0.00;0.00;;;12.70;99.90;;;;;;5102993;28;20048;-73
2023/08/24 01:27:43;;;;;;;0.00;0.00;;;12.70;99.90;;;;;;5096065;28;20074;-73
2023/08/24 01:30:09;;;;;;;0.30;0.28;;;12.80;99.90;;;;;;5102879;28;20051;-73
2023/08/24 01:32:35;;;;;;;0.00;0.00;;;12.90;99.90;;;;;;5106338;28;20039;-73
2023/08/24 01:35:07;;;;;;;0.00;0.00;;;13.00;99.90;;;;;;5105960;28;20115;-73
2023/08/24 01:37:34;;;;;;;0.00;0.00;;;13.00;99.90;;;;;;5103309;28;20044;-73
2023/08/24 01:40:09;;;;;;;0.00;0.00;;;13.00;99.90;;;;;;5102672;28;20044;-73
2023/08/24 01:42:41;;;;;;;0.00;0.00;;;13.00;99.90;;;;;;5111101;28;20055;-73
2023/08/24 01:45:08;;;;;;;2.40;1.13;;;13.00;99.90;;;;;;5103277;28;20126;-74
2023/08/24 01:47:35;;;;;;;0.65;0.35;;;13.10;99.90;;;;;;5102673;28;20421;-73
2023/08/24 01:50:02;;;;;;;0.38;0.35;;;13.10;99.90;;;;;;5102934;28;20035;-73
2023/08/24 01:52:29;;;;;;;0.47;0.47;;;13.40;99.90;;;;;;5102508;28;20051;-73
2023/08/24 01:54:55;;;;;;;0.00;0.00;;;13.10;99.90;;;;;;5106027;28;20043;-73
2023/08/24 01:57:20;;;;;;;0.25;0.25;;;13.10;99.90;;;;;;5104597;28;20104;-73
2023/08/24 01:59:46;;;;;;;2.63;0.30;;;13.10;99.90;;;;;;5104839;28;20036;-73
2023/08/24 02:02:12;;;;;;;0.45;0.32;;;13.20;99.90;;;;;;5103210;28;20032;-73
2023/08/24 02:04:37;;;;;;;0.35;0.28;;;13.20;99.90;;;;;;5103420;28;20036;-73
2023/08/24 02:07:03;;;;;;;0.20;0.13;;;13.20;99.90;;;;;;5111389;28;20040;-73
2023/08/24 02:09:30;;;;;;;0.05;0.05;;;13.20;99.90;;;;;;5102956;28;20047;-73
2023/08/24 02:11:55;;;;;;;0.00;0.00;;;13.30;99.90;;;;;;5102903;28;20055;-73
2023/08/24 02:14:21;;;;;;;0.20;0.20;;;13.30;99.90;;;;;;5105574;28;20044;-73
2023/08/24 02:16:47;;;;;;;0.00;0.00;;;13.20;99.90;;;;;;5105771;28;20036;-73
2023/08/24 02:19:12;;;;;;;0.10;0.10;;;13.20;99.90;;;;;;5103055;28;20036;-73
2023/08/24 02:21:38;;;;;;;0.00;0.00;;;13.20;99.90;;;;;;5102228;28;20531;-73
2023/08/24 02:24:05;;;;;;;0.35;0.35;;;13.20;99.90;;;;;;5102517;28;20160;-73
2023/08/24 02:26:30;;;;;;;0.05;0.05;;;13.10;99.90;;;;;;5105637;28;20028;-73
2023/08/24 02:28:57;;;;;;;0.08;0.08;;;13.20;99.90;;;;;;5106009;28;20057;-73
2023/08/24 02:31:23;;;;;;;0.25;0.25;;;13.10;99.90;;;;;;5103394;28;20040;-73
2023/08/24 02:33:49;;;;;;;0.00;0.00;;;13.10;99.90;;;;;;5107796;28;20038;-73
2023/08/24 02:36:14;;;;;;;0.32;0.32;;;13.10;99.90;;;;;;5104973;28;20122;-73
2023/08/24 02:38:40;;;;;;;1.38;0.90;;;13.10;99.90;;;;;;5102690;28;20499;-73
2023/08/24 02:41:07;;;;;;;0.20;0.10;;;13.00;99.90;;;;;;5109286;28;20043;-73
2023/08/24 02:43:34;;;;;;;0.00;0.00;;;13.00;99.90;;;;;;5103623;28;20058;-73
2023/08/24 02:46:01;;;;;;;0.00;0.00;;;12.90;99.90;;;;;;5102123;28;20589;-73
2023/08/24 02:48:27;;;;;;;0.00;0.00;;;13.00;99.90;;;;;;5102941;28;20047;-73
2023/08/24 02:50:53;;;;;;;0.00;0.00;;;13.00;99.90;;;;;;5105581;28;20036;-73
2023/08/24 02:53:18;;;;;;;0.00;0.00;;;13.10;99.90;;;;;;5105731;28;20058;-73
2023/08/24 02:55:44;;;;;;;0.05;0.00;;;13.10;99.90;;;;;;5103866;28;20118;-73
2023/08/24 02:58:09;;;;;;;0.43;0.35;;;13.20;99.90;;;;;;5102181;28;20532;-72
2023/08/24 03:00:38;;;;;;;0.00;0.00;;;13.40;99.90;;;;;;5101920;28;20066;-72
2023/08/24 03:03:05;;;;;;;0.93;0.43;;;13.30;99.90;;;;;;5097612;28;20066;-72
2023/08/24 03:05:32;;;;;;;0.00;0.00;;;13.50;99.90;;;;;;5103727;28;20131;-72
2023/08/24 03:07:58;;;;;;;0.08;0.08;;;13.50;99.90;;;;;;5103739;28;20040;-72
2023/08/24 03:10:24;;;;;;;0.10;0.10;;;13.50;99.90;;;;;;5105054;28;20058;-72
2023/08/24 03:12:50;;;;;;;0.10;0.10;;;13.50;99.90;;;;;;5095980;28;20044;-72
2023/08/24 03:15:15;;;;;;;0.10;0.10;;;13.50;99.90;;;;;;5096165;28;20047;-73
2023/08/24 03:17:41;;;;;;;0.00;0.00;;;13.40;99.90;;;;;;5096777;28;20044;-72
2023/08/24 03:20:08;;;;;;;0.00;0.00;;;13.40;99.90;;;;;;5098725;28;20124;-73
2023/08/24 03:22:34;;;;;;;0.00;0.00;;;13.30;99.90;;;;;;5106095;28;20114;-73
2023/08/24 03:24:59;;;;;;;0.00;0.00;;;13.20;99.90;;;;;;5108866;27;20039;-73
2023/08/24 03:27:25;;;;;;;0.00;0.00;;;13.10;99.90;;;;;;5105730;28;20123;-73
2023/08/24 03:29:53;;;;;;;0.00;0.00;;;13.10;99.90;;;;;;5103870;28;20497;-73
2023/08/24 03:32:19;;;;;;;0.00;0.00;;;13.00;99.90;;;;;;5106927;28;20048;-73
2023/08/24 03:34:45;;;;;;;0.00;0.00;;;13.00;99.90;;;;;;5105348;28;20402;-72
2023/08/24 03:37:10;;;;;;;0.00;0.00;;;12.90;99.90;;;;;;5113551;28;20435;-72
2023/08/24 03:39:40;;;;;;;0.10;0.10;;;12.90;99.90;;;;;;5105446;28;20078;-72
2023/08/24 03:42:06;;;;;;;0.20;0.20;;;12.80;99.90;;;;;;5105564;28;20115;-73
2023/08/24 03:44:32;;;;;;;0.00;0.00;;;12.80;99.90;;;;;;5106844;28;20075;-73
2023/08/24 03:46:57;;;;;;;0.00;0.00;;;12.70;99.90;;;;;;5108567;28;20043;-73
2023/08/24 03:49:23;;;;;;;0.00;0.00;;;12.60;99.90;;;;;;5108434;28;20070;-72
2023/08/24 03:51:49;;;;;;;0.00;0.00;;;12.60;99.90;;;;;;5108442;28;20039;-72
2023/08/24 03:54:14;;;;;;;0.20;0.13;;;12.60;99.90;;;;;;5108496;28;20032;-72
2023/08/24 03:56:40;;;;;;;0.13;0.08;;;12.60;99.90;;;;;;5107054;28;20606;-73
2023/08/24 03:59:05;;;;;;;0.00;0.00;;;12.60;99.90;;;;;;5105035;28;20040;-72
2023/08/24 04:01:31;;;;;;;0.00;0.00;;;12.50;99.90;;;;;;5104832;28;20067;-73
2023/08/24 04:03:57;;;;;;;0.30;0.20;;;12.50;99.90;;;;;;5107387;28;20044;-73
2023/08/24 04:06:23;;;;;;;0.00;0.00;;;12.50;99.90;;;;;;5108066;28;20089;-72
2023/08/24 04:08:49;;;;;;;0.00;0.00;;;12.50;99.90;;;;;;5107696;28;20044;-73
2023/08/24 04:11:15;;;;;;;0.00;0.00;;;12.50;99.90;;;;;;5104862;28;20483;-73
2023/08/24 04:13:40;;;;;;;0.35;0.35;;;12.50;99.90;;;;;;5111097;28;20043;-72
2023/08/24 04:16:06;;;;;;;1.13;0.65;;;12.60;99.90;;;;;;5105464;28;20043;-73
2023/08/24 04:18:32;;;;;;;1.10;1.00;;;12.60;99.90;;;;;;5104865;28;20086;-73
2023/08/24 04:20:57;;;;;;;0.17;0.17;;;12.60;99.90;;;;;;5105250;28;20067;-73
2023/08/24 04:23:26;;;;;;;0.00;0.00;;;12.60;99.90;;;;;;5108611;28;20521;-73
2023/08/24 04:25:53;;;;;;;0.08;0.00;;;12.60;99.90;;;;;;5108402;28;20089;-73
2023/08/24 04:28:19;;;;;;;0.88;0.57;;;12.60;99.90;;;;;;5108101;28;20036;-72
2023/08/24 04:30:55;;;;;;;0.08;0.08;;;12.60;99.90;;;;;;5108191;28;20459;-73
2023/08/24 04:33:21;;;;;;;0.10;0.00;;;12.60;99.90;;;;;;5106576;27;20039;-73
2023/08/24 04:35:51;;;;;;;0.00;0.00;;;12.60;99.90;;;;;;5104001;28;20379;-73
2023/08/24 04:38:16;;;;;;;0.70;0.15;;;12.70;99.90;;;;;;5105493;28;20032;-73
2023/08/24 04:40:48;;;;;;;7.38;1.65;;;12.90;99.90;;;;;;5108004;28;20047;-73
2023/08/24 04:43:13;;;;;;;0.08;0.08;;;12.90;99.90;;;;;;5107979;28;20088;-73
2023/08/24 04:45:39;;;;;;;0.30;0.28;;;12.90;99.90;;;;;;5105593;28;20123;-73
2023/08/24 04:48:05;;;;;;;0.85;0.65;;;12.90;99.90;;;;;;5104601;28;20058;-73
2023/08/24 04:50:30;;;;;;;0.35;0.22;;;13.00;99.90;;;;;;5105458;28;20120;-73
2023/08/24 04:52:56;;;;;;;9.20;2.60;;;13.00;99.90;;;;;;5107837;28;20032;-73
2023/08/24 04:55:22;;;;;;;0.50;0.47;;;13.00;99.90;;;;;;5100329;28;20032;-73
2023/08/24 04:57:48;;;;;;;0.32;0.20;;;12.90;99.90;;;;;;5106655;28;20103;-73
2023/08/24 05:00:16;;;;;;;0.90;0.30;;;13.00;99.90;;;;;;5110826;28;20494;-73
2023/08/24 05:02:42;;;;;;;0.05;0.05;;;13.00;99.90;;;;;;5104708;28;20036;-73
2023/08/24 05:05:13;;;;;;;2.25;0.68;;;13.00;99.90;;;;;;5107436;28;20043;-73
2023/08/24 05:07:40;;;;;;;0.10;0.10;;;13.10;99.90;;;;;;5104224;28;20047;-73
2023/08/24 05:10:07;;;;;;;0.10;0.10;;;13.10;99.90;;;;;;5101472;28;20079;-73
2023/08/24 05:12:35;;;;;;;0.85;0.60;;;13.10;99.90;;;;;;5100913;28;20127;-73
2023/08/24 05:15:04;;;;;;;12.38;0.93;;;13.10;99.90;;;;;;5101946;28;20054;-74
2023/08/24 05:17:31;;;;;;;0.77;0.52;;;13.20;99.90;;;;;;5101395;28;20067;-73
2023/08/24 05:19:57;;;;;;;0.70;0.60;;;13.30;99.90;;;;;;5086485;28;20044;-74
2023/08/24 05:22:23;;;;;;;0.40;0.40;;;13.20;99.90;;;;;;5104062;28;20047;-74
2023/08/24 05:24:49;;;;;;;0.98;0.98;;;13.30;99.90;;;;;;5105455;28;20055;-74
2023/08/24 05:27:15;;;;;;;0.57;0.57;;;13.40;99.90;;;;;;5100431;28;20072;-73
2023/08/24 05:29:41;;;;;;;1.77;0.73;;;13.40;99.90;;;;;;5100083;28;20120;-73
2023/08/24 05:32:06;;;;;;;3.55;0.63;;;13.50;99.90;;;;;;5102119;28;20115;-73
2023/08/24 05:34:32;;;;;;;0.00;0.00;;;13.50;99.90;;;;;;5104840;27;20032;-73
2023/08/24 05:36:58;;;;;;;0.50;0.50;;;13.50;99.90;;;;;;5104834;28;20087;-73
2023/08/24 05:39:23;;;;;;;0.45;0.43;;;13.70;99.90;;;;;;5102879;28;20381;-73
2023/08/24 05:41:53;;;;;;;0.45;0.45;;;13.90;99.90;;;;;;5099598;28;20028;-73
2023/08/24 05:44:21;;;;;;;0.55;0.32;;;14.10;99.90;;;;;;5100163;28;20040;-73
2023/08/24 05:46:47;;;;;;;0.52;0.47;;;14.10;99.90;;;;;;5103040;28;20401;-73
2023/08/24 05:49:13;;;;;;;0.55;0.50;;;14.10;99.90;;;;;;5103064;28;20035;-73
2023/08/24 05:51:38;;;;;;;0.47;0.47;;;14.30;99.90;;;;;;5101037;28;20039;-74
2023/08/24 05:54:04;;;;;;;4.20;1.30;;;14.40;99.90;;;;;;5100239;28;20036;-74
2023/08/24 05:56:30;;;;;;;1.98;1.08;;;14.40;99.90;;;;;;5101302;28;20437;-73
2023/08/24 05:58:58;;;;;;;0.80;0.65;;;14.60;99.90;;;;;;5093343;28;20051;-74
2023/08/24 06:01:24;;;;;;;0.38;0.30;;;14.60;99.90;;;;;;5101653;28;20036;-73
2023/08/24 06:03:50;;;;;;;1.15;0.68;;;14.70;99.90;;;;;;5098440;28;20488;-73
2023/08/24 06:06:15;;;;;;;2.85;1.08;;;14.70;99.90;;;;;;5092319;28;20039;-73
2023/08/24 06:08:42;;;;;;;1.20;0.98;;;14.90;99.90;;;;;;5104597;28;20042;-73
2023/08/24 06:11:08;;;;;;;0.80;0.80;;;14.90;99.90;;;;;;5092537;28;20040;-73
2023/08/24 06:13:34;;;;;;;2.63;0.82;;;14.90;99.90;;;;;;5108340;28;20063;-73
2023/08/24 06:15:59;;;;;;;0.55;0.50;;;15.10;99.90;;;;;;5104232;28;20043;-73
2023/08/24 06:18:26;;;;;;;1.42;1.30;;;15.60;99.90;;;;;;5102111;28;20048;-73
2023/08/24 06:20:51;;;;;;;0.93;0.70;;;16.10;99.90;;;;;;5094951;28;20044;-73
2023/08/24 06:23:18;;;;;;;0.52;0.50;;;16.80;99.90;;;;;;5093495;28;20071;-73
2023/08/24 06:25:44;;;;;;;0.43;0.30;;;17.30;99.90;;;;;;5101164;28;20051;-73
2023/08/24 06:28:10;;;;;;;0.38;0.38;;;17.70;99.90;;;;;;5102270;28;20028;-73
2023/08/24 06:30:43;;;;;;;0.25;0.20;;;18.20;99.90;;;;;;5097111;28;20075;-73
2023/08/24 06:33:10;;;;;;;0.43;0.38;;;18.70;33.00;;;;;;5098815;28;20124;-74
2023/08/24 06:35:36;;;;;;;0.10;0.10;;;19.00;99.90;;;;;;5093390;28;20044;-73
2023/08/24 06:38:03;;;;;;;0.20;0.20;;;19.30;1.00;;;;;;5100866;28;20063;-74
2023/08/24 06:40:30;;;;;;;0.98;0.47;;;20.00;99.90;;;;;;5095205;28;20060;-74
2023/08/24 06:42:56;;;;;;;0.10;0.10;;;20.40;99.90;;;;;;5092779;28;20031;-74
2023/08/24 06:45:21;;;;;;;0.70;0.45;;;20.50;99.90;;;;;;5083417;28;20391;-74
2023/08/24 06:47:47;;;;;;;0.45;0.30;;;20.80;99.90;;;;;;5088991;28;20028;-74
2023/08/24 06:50:14;;;;;;;0.35;0.35;;;20.80;1.00;;;;;;5091684;28;20039;-74
2023/08/24 06:52:40;;;;;;;2.00;0.65;;;21.00;99.90;;;;;;5098558;28;20044;-74
2023/08/24 06:55:09;;;;;;;2.03;0.77;;;21.10;99.90;;;;;;5092951;28;20044;-74
2023/08/24 06:57:34;;;;;;;1.85;0.63;;;21.30;99.90;;;;;;5101014;28;20418;-74
2023/08/24 07:00:00;;;;;;;0.40;0.13;;;21.60;99.90;;;;;;5102094;28;20032;-74
2023/08/24 07:02:26;;;;;;;0.13;0.13;;;21.50;8.80;;;;;;5101063;28;20043;-74
2023/08/24 07:04:51;;;;;;;0.35;0.35;;;22.20;1.00;;;;;;5097049;28;20048;-74
2023/08/24 07:07:17;;;;;;;1.20;0.38;;;22.70;99.90;;;;;;5107150;28;20038;-74
2023/08/24 07:09:43;;;;;;;2.15;1.30;;;22.50;1.00;;;;;;5103242;28;20048;-74
2023/08/24 07:12:10;;;;;;;0.00;0.00;;;21.90;60.60;;;;;;5106808;28;20482;-74
2023/08/24 07:14:38;;;;;;;1.60;0.82;;;22.00;99.90;;;;;;5107189;27;20497;-74
2023/08/24 07:17:05;;;;;;;0.08;0.08;;;21.90;99.90;;;;;;5106844;28;20044;-74
2023/08/24 07:19:31;;;;;;;0.20;0.20;;;23.00;99.90;;;;;;5107813;28;20043;-74
2023/08/24 07:21:57;;;;;;;8.45;0.47;;;22.90;1.00;;;;;;5106556;28;20097;-74
2023/08/24 07:24:26;;;;;;;0.35;0.20;;;23.40;1.00;;;;;;5107997;28;20047;-74
2023/08/24 07:26:52;;;;;;;0.45;0.28;;;24.60;99.90;;;;;;5107966;28;20126;-74
2023/08/24 07:29:18;;;;;;;0.77;0.50;;;25.00;99.90;;;;;;5105322;28;20093;-74
2023/08/24 07:31:44;;;;;;;1.75;0.63;;;24.50;99.90;;;;;;5098259;28;20077;-74
2023/08/24 07:34:09;;;;;;;0.70;0.50;;;25.30;99.90;;;;;;5102232;28;20032;-74
2023/08/24 07:36:35;;;;;;;0.15;0.15;;;24.50;99.90;;;;;;5107329;27;20032;-74
2023/08/24 07:39:01;;;;;;;0.10;0.10;;;24.50;99.90;;;;;;5104529;28;20111;-74
2023/08/24 07:41:26;;;;;;;0.75;0.55;;;23.60;99.90;;;;;;5105982;28;20434;-74
2023/08/24 07:43:52;;;;;;;1.85;0.77;;;23.80;99.90;;;;;;5102490;28;20055;-74
2023/08/24 07:46:17;;;;;;;0.35;0.25;;;23.60;99.90;;;;;;5104014;28;20490;-74
2023/08/24 07:48:43;;;;;;;0.28;0.28;;;23.70;99.90;;;;;;5081365;28;20042;-74
2023/08/24 07:51:09;;;;;;;0.28;0.25;;;24.40;99.90;;;;;;5106766;28;20027;-74
2023/08/24 07:53:34;;;;;;;1.27;0.80;;;24.10;99.90;;;;;;5104160;28;20047;-74
2023/08/24 07:56:01;;;;;;;3.30;0.98;;;24.10;99.90;;;;;;5098966;28;20501;-74
2023/08/24 07:58:27;;;;;;;3.63;1.13;;;24.60;99.90;;;;;;5103780;28;20177;-74
2023/08/24 08:00:53;;;;;;;0.30;0.30;;;24.20;99.90;;;;;;5106336;28;20118;-74
2023/08/24 08:03:19;;;;;;;1.20;0.77;;;24.10;99.90;;;;;;5099024;28;20027;-74
2023/08/24 08:05:46;;;;;;;3.40;0.73;;;24.20;59.60;;;;;;5098844;28;20044;-74
2023/08/24 08:08:15;;;;;;;0.55;0.43;;;24.20;99.90;;;;;;5106598;28;20028;-74
2023/08/24 08:10:41;;;;;;;0.20;0.20;;;25.00;99.90;;;;;;5099725;28;20490;-74
2023/08/24 08:13:07;;;;;;;0.52;0.25;;;25.20;1.00;;;;;;5103159;28;20044;-74
2023/08/24 08:15:33;;;;;;;0.77;0.60;;;24.70;1.00;;;;;;5103441;28;20058;-74
2023/08/24 08:17:59;;;;;;;1.95;0.88;;;24.50;14.40;;;;;;5103225;28;20123;-74
2023/08/24 08:20:25;;;;;;;0.50;0.47;;;25.70;43.70;;;;;;5099495;28;20463;-75
2023/08/24 08:22:50;;;;;;;0.28;0.25;;;25.70;1.00;;;;;;5106667;28;20036;-75
2023/08/24 08:25:19;;;;;;;1.65;0.77;;;26.40;1.00;;;;;;5097827;28;20535;-75
2023/08/24 08:27:44;;;;;;;2.00;1.15;;;26.60;1.00;;;;;;5105690;28;20032;-74
2023/08/24 08:30:11;;;;;;;0.20;0.20;;;26.10;1.00;;;;;;5103724;28;20438;-74
2023/08/24 08:32:36;;;;;;;0.63;0.40;;;25.80;1.00;;;;;;5104937;28;20077;-74
2023/08/24 08:35:04;;;;;;;0.10;0.10;;;25.80;1.00;;;;;;5106418;28;20035;-74
2023/08/24 08:37:32;;;;;;;1.20;0.60;;;26.10;99.90;;;;;;5103164;28;20036;-74
2023/08/24 08:39:57;;;;;;;1.05;0.93;;;25.90;99.90;;;;;;5096572;28;20122;-75
2023/08/24 08:42:23;;;;;;;1.38;1.08;;;26.50;99.90;;;;;;5104656;28;20118;-75
2023/08/24 08:44:49;;;;;;;7.47;1.13;;;26.00;99.90;;;;;;5102986;28;20555;-75
2023/08/24 08:47:17;;;;;;;0.88;0.55;;;26.90;99.90;;;;;;5102507;28;20054;-75
2023/08/24 08:49:44;;;;;;;0.20;0.20;;;27.00;99.90;;;;;;5106201;28;20114;-74
2023/08/24 08:52:11;;;;;;;0.90;0.45;;;25.60;99.90;;;;;;5103032;28;20036;-74
2023/08/24 08:54:37;;;;;;;1.75;0.95;;;25.10;99.90;;;;;;5097367;28;20134;-74
2023/08/24 08:57:03;;;;;;;0.38;0.25;;;25.80;99.90;;;;;;5105868;28;20525;-74
2023/08/24 08:59:30;;;;;;;0.73;0.57;;;25.60;99.90;;;;;;5100032;28;20482;-74
2023/08/24 09:01:58;;;;;;;1.63;0.85;;;25.90;99.90;;;;;;5093698;28;20043;-74
2023/08/24 09:04:31;;;;;;;1.05;0.68;;;25.80;99.90;;;;;;5102503;28;20104;-74
2023/08/24 09:06:57;;;;;;;0.38;0.32;;;26.30;99.90;;;;;;5100853;28;20063;-74
2023/08/24 09:09:22;;;;;;;15.18;1.13;;;26.40;99.90;;;;;;5098721;28;20047;-74
2023/08/24 09:11:49;;;;;;;0.82;0.57;;;26.30;99.90;;;;;;5104488;28;20055;-74
2023/08/24 09:14:15;;;;;;;5.32;1.35;;;26.00;99.90;;;;;;5102182;28;20058;-74
2023/08/24 09:16:41;;;;;;;1.10;0.75;;;26.40;99.90;;;;;;5102355;28;20044;-74
2023/08/24 09:19:09;;;;;;;1.15;0.90;;;26.70;99.90;;;;;;5104041;28;20039;-74
2023/08/24 09:21:39;;;;;;;1.27;0.75;;;26.90;99.90;;;;;;5098345;28;20411;-74
2023/08/24 09:24:06;;;;;;;14.80;0.85;;;26.90;99.90;;;;;;5103716;28;20047;-74
2023/08/24 09:26:34;;;;;;;0.22;0.22;;;27.00;99.90;;;;;;5102038;28;20115;-74
2023/08/24 09:29:01;;;;;;;0.70;0.63;;;26.70;99.90;;;;;;5108853;28;20046;-74
2023/08/24 09:31:39;;;;;;;1.77;0.75;;;25.20;99.90;;;;;;5102146;28;20494;-75
2023/08/24 09:34:05;;;;;;;0.52;0.52;;;24.80;1.00;;;;;;5102084;28;20036;-74
2023/08/24 09:36:32;;;;;;;1.23;0.60;;;24.90;1.00;;;;;;5093631;28;20111;-74
2023/08/24 09:38:59;;;;;;;1.67;0.88;;;24.70;1.00;;;;;;5097553;28;20036;-75
2023/08/24 09:41:40;;;;;;;1.15;0.90;;;24.60;1.00;;;;;;5104168;28;20489;-74
2023/08/24 09:44:07;;;;;;;0.77;0.47;;;24.40;1.00;;;;;;5101983;28;20044;-75
2023/08/24 09:46:34;;;;;;;1.40;0.28;;;24.60;1.00;;;;;;5104132;28;20040;-74
2023/08/24 09:49:01;;;;;;;0.25;0.25;;;24.10;1.00;;;;;;5104098;28;20046;-75
2023/08/24 09:51:27;;;;;;;0.20;0.20;;;24.20;5.30;;;;;;5104424;28;20094;-74
2023/08/24 09:53:58;;;;;;;1.10;0.50;;;24.50;4.90;;;;;;5101496;28;20068;-74
2023/08/24 09:56:27;;;;;;;0.57;0.57;;;24.20;14.10;;;;;;5101962;28;20344;-74
2023/08/24 09:58:55;;;;;;;0.65;0.35;;;24.20;27.80;;;;;;5081079;28;20084;-75
2023/08/24 10:01:21;;;;;;;0.80;0.32;;;24.20;49.50;;;;;;5105090;28;20051;-75
2023/08/24 10:03:56;;;;;;;3.47;0.73;;;24.40;45.70;;;;;;5102823;28;20402;-75
2023/08/24 10:06:23;;;;;;;3.78;1.02;;;24.40;95.10;;;;;;5101227;28;20127;-75
2023/08/24 10:08:58;;;;;;;0.63;0.43;;;24.20;99.90;;;;;;5099213;28;20520;-75
2023/08/24 10:11:26;;;;;;;;;;;24.30;99.90;;;;;;5101806;28;20052;-74
2023/08/24 10:14:09;;;;;;;2.47;1.27;;;24.20;99.90;;;;;;5102643;28;19924;-74
2023/08/24 10:16:36;;;;;;;0.65;0.57;;;24.40;99.90;;;;;;5101262;28;20065;-73
2023/08/24 10:19:03;;;;;;;2.67;1.27;;;24.30;99.90;;;;;;5096131;28;20051;-74
2023/08/24 10:21:29;;;;;;;1.08;0.75;;;24.30;99.90;;;;;;5099678;28;20119;-74
2023/08/24 10:23:58;;;;;;;2.90;0.75;;;24.20;99.90;;;;;;5098473;28;20134;-74
2023/08/24 10:26:24;;;;;;;0.73;0.45;;;24.40;99.90;;;;;;5101270;28;20035;-74
2023/08/24 10:28:53;;;;;;;0.65;0.47;;;24.10;99.90;;;;;;5094137;28;20047;-74
2023/08/24 10:31:20;;;;;;;1.77;0.70;;;24.00;99.90;;;;;;5098207;28;20466;-74
2023/08/24 10:33:46;;;;;;;1.65;0.90;;;23.80;99.90;;;;;;5100502;28;20045;-75
2023/08/24 10:36:16;;;;;;;0.30;0.25;;;23.80;99.90;;;;;;5099909;28;20440;-74
2023/08/24 10:38:43;;;;;;;0.65;0.32;;;23.90;99.90;;;;;;5078008;28;20048;-74
2023/08/24 10:41:09;;;;;;;4.47;1.40;;;23.60;1.00;;;;;;5082950;28;20397;-74
2023/08/24 10:43:37;;;;;;;2.45;1.33;;;23.70;99.90;;;;;;5106633;28;20044;-74
2023/08/24 10:46:03;;;;;;;9.07;1.02;;;23.60;1.00;;;;;;5097109;28;20069;-74
2023/08/24 10:48:50;;;;;;;0.63;0.63;;;23.50;13.20;;;;;;5105896;28;20157;-74
2023/08/24 10:51:22;;;;;;;1.40;0.98;;;23.30;1.00;;;;;;5100666;28;20080;-74
2023/08/24 10:53:51;;;;;;;0.32;0.30;;;23.30;1.00;;;;;;5089624;28;20046;-74
2023/08/24 10:56:18;;;;;;;1.00;0.93;;;23.30;99.90;;;;;;5097329;28;20486;-74
2023/08/24 10:58:46;;;;;;;0.30;0.30;;;23.30;99.90;;;;;;5098485;28;20058;-74
2023/08/24 11:01:18;;;;;;;0.75;0.75;;;23.50;99.90;;;;;;5097489;28;20460;-74
2023/08/24 11:03:51;;;;;;;17.13;1.70;;;23.50;99.90;;;;;;5099061;28;20096;-74
2023/08/24 11:06:22;;;;;;;1.80;0.75;;;23.70;99.90;;;;;;5094878;28;20044;-74
2023/08/24 11:08:49;;;;;;;0.50;0.38;;;23.90;99.90;;;;;;5075915;28;20045;-74
2023/08/24 11:11:27;;;;;;;4.20;1.30;;;23.70;26.80;;;;;;5100122;28;20040;-74
2023/08/24 11:14:27;;;;;;;1.45;1.05;;;23.80;95.80;;;;;;5100430;28;20797;-74
2023/08/24 11:16:54;;;;;;;0.45;0.43;;;23.90;61.80;;;;;;5095611;28;20050;-74
2023/08/24 11:19:19;;;;;;;0.73;0.65;;;24.30;59.80;;;;;;5100901;28;20118;-74
2023/08/24 11:21:46;;;;;;;1.02;0.82;;;24.40;1.00;;;;;;5100600;28;20470;-74
2023/08/24 11:24:16;;;;;;;1.45;0.80;;;24.50;99.90;;;;;;5097973;28;20054;-74
2023/08/24 11:26:52;;;;;;;1.05;0.55;;;24.90;99.90;;;;;;5091335;28;20051;-74
2023/08/24 11:29:20;;;;;;;0.20;0.20;;;25.40;1.00;;;;;;5100094;28;20044;-74
2023/08/24 11:31:47;;;;;;;0.13;0.13;;;25.60;99.90;;;;;;5100241;28;20511;-74
2023/08/24 11:34:15;;;;;;;3.88;0.65;;;25.80;99.90;;;;;;5098592;28;20036;-74
2023/08/24 11:36:43;;;;;;;1.48;1.05;;;25.80;99.90;;;;;;5096853;28;20036;-74
2023/08/24 11:39:19;;;;;;;1.27;1.00;;;25.70;99.90;;;;;;5100838;28;20052;-74
2023/08/24 11:41:55;;;;;;;0.43;0.35;;;25.70;99.90;;;;;;5102811;28;20047;-74
2023/08/24 11:44:21;;;;;;;0.63;0.63;;;25.50;99.90;;;;;;5106319;28;20036;-74
2023/08/24 11:46:47;;;;;;;1.10;0.73;;;25.60;99.90;;;;;;5105337;28;20079;-74
2023/08/24 11:49:13;;;;;;;0.45;0.45;;;25.50;99.90;;;;;;5108803;28;20051;-74
2023/08/24 11:51:38;;;;;;;0.93;0.70;;;25.90;99.90;;;;;;5106767;28;20496;-74
2023/08/24 11:54:04;;;;;;;0.55;0.45;;;25.90;99.90;;;;;;5108759;28;20032;-74
2023/08/24 11:56:30;;;;;;;1.15;0.75;;;26.30;99.90;;;;;;5102642;28;20071;-74
2023/08/24 11:58:55;;;;;;;3.80;0.90;;;27.00;99.90;;;;;;5107525;28;20489;-74
2023/08/24 12:01:21;;;;;;;2.40;1.42;;;27.50;30.90;;;;;;5106763;28;20039;-74
2023/08/24 12:03:47;;;;;;;1.00;0.77;;;27.00;1.00;;;;;;5104531;28;20062;-74
2023/08/24 12:06:14;;;;;;;0.35;0.35;;;27.00;1.00;;;;;;5107847;28;20028;-74
2023/08/24 12:08:42;;;;;;;0.80;0.75;;;27.30;1.00;;;;;;5095889;28;20051;-74
2023/08/24 12:11:14;;;;;;;5.57;2.08;;;27.20;1.00;;;;;;5099390;28;20115;-74
2023/08/24 12:13:44;;;;;;;0.47;0.45;;;27.30;1.00;;;;;;5107512;28;20417;-74
2023/08/24 12:16:10;;;;;;;0.45;0.25;;;27.00;1.00;;;;;;5096508;28;20039;-74
2023/08/24 12:18:50;;;;;;;1.10;0.52;;;26.90;1.00;;;;;;5107865;28;20047;-74
2023/08/24 12:21:16;;;;;;;0.15;0.10;;;27.00;1.00;;;;;;5096397;28;20118;-74
2023/08/24 12:23:41;;;;;;;1.17;0.90;;;27.00;1.00;;;;;;5104070;28;20128;-75
2023/08/24 12:26:07;;;;;;;0.17;0.17;;;26.90;1.00;;;;;;5105761;28;20031;-75
2023/08/24 12:28:34;;;;;;;1.52;1.08;;;27.00;1.00;;;;;;5104340;28;20156;-75
2023/08/24 12:31:03;;;;;;;1.90;0.98;;;26.70;1.00;;;;;;5101103;28;20042;-75
2023/08/24 12:33:31;;;;;;;0.63;0.43;;;26.30;1.00;;;;;;5103543;28;20059;-75
2023/08/24 12:35:58;;;;;;;0.35;0.30;;;26.20;1.00;;;;;;5100324;28;20093;-75
2023/08/24 12:38:24;;;;;;;0.45;0.43;;;26.40;1.00;;;;;;5107918;28;20130;-75
2023/08/24 12:40:51;;;;;;;1.65;0.93;;;26.50;1.00;;;;;;5103747;28;20050;-75
2023/08/24 12:43:17;;;;;;;0.20;0.20;;;26.30;1.00;;;;;;5103261;28;20052;-75
2023/08/24 12:45:43;;;;;;;0.20;0.10;;;26.20;1.00;;;;;;5102920;28;20048;-75
2023/08/24 12:48:09;;;;;;;1.65;0.32;;;26.50;1.00;;;;;;5099233;28;20451;-75